createdAt,value
2023-11-20T00:02:10.197Z,11.25
2023-11-20T00:04:38.101Z,11.27
2023-11-20T00:07:06.653Z,11.24
2023-11-20T00:09:33.717Z,11.22
2023-11-20T00:12:00.555Z,11.21
2023-11-20T00:14:27.602Z,11.20
2023-11-20T00:16:54.210Z,11.18
2023-11-20T00:19:21.322Z,11.16
2023-11-20T00:21:48.011Z,11.15
2023-11-20T00:24:14.558Z,11.15
2023-11-20T00:26:41.093Z,11.13
2023-11-20T00:29:08.445Z,11.12
2023-11-20T00:31:38.379Z,11.09
2023-11-20T00:34:05.449Z,11.10
2023-11-20T00:36:32.287Z,11.07
2023-11-20T00:38:58.893Z,11.06
2023-11-20T00:41:26.456Z,11.05
2023-11-20T00:43:53.214Z,11.06
2023-11-20T00:46:19.842Z,11.05
2023-11-20T00:48:46.441Z,11.06
2023-11-20T00:51:14.437Z,11.06
2023-11-20T00:53:41.241Z,11.03
2023-11-20T00:56:08.225Z,11.02
2023-11-20T00:58:36.093Z,11.02
2023-11-20T01:01:03.166Z,11.01
2023-11-20T01:03:30.098Z,11.01
2023-11-20T01:05:57.171Z,10.97
2023-11-20T01:08:23.676Z,10.97
2023-11-20T01:10:50.211Z,10.98
2023-11-20T01:13:16.711Z,10.96
2023-11-20T01:15:43.258Z,10.97
2023-11-20T01:18:09.847Z,10.95
2023-11-20T01:20:36.392Z,10.97
2023-11-20T01:23:03.804Z,10.95
2023-11-20T01:25:32.837Z,10.93
2023-11-20T01:28:02.284Z,10.95
2023-11-20T01:30:29.061Z,10.92
2023-11-20T01:32:55.711Z,10.94
2023-11-20T01:35:22.491Z,10.91
2023-11-20T01:37:49.202Z,10.92
2023-11-20T01:40:16.072Z,10.92
2023-11-20T01:42:42.698Z,10.89
2023-11-20T01:45:09.772Z,10.89
2023-11-20T01:47:40.030Z,10.88
2023-11-20T01:50:10.896Z,10.85
2023-11-20T01:52:41.842Z,10.85
2023-11-20T01:55:10.478Z,10.84
2023-11-20T01:57:39.297Z,10.84
2023-11-20T02:00:10.405Z,10.83
2023-11-20T02:02:39.396Z,10.83
2023-11-20T02:05:06.381Z,10.82
2023-11-20T02:07:34.172Z,10.81
2023-11-20T02:10:04.937Z,10.81
2023-11-20T02:12:32.304Z,10.82
2023-11-20T02:14:59.458Z,10.80
2023-11-20T02:17:26.095Z,10.81
2023-11-20T02:19:53.457Z,10.81
2023-11-20T02:22:19.941Z,10.79
2023-11-20T02:24:47.993Z,10.78
2023-11-20T02:27:36.487Z,10.77
2023-11-20T02:30:07.317Z,10.74
2023-11-20T02:32:34.621Z,10.76
2023-11-20T02:35:02.410Z,10.76
2023-11-20T02:37:32.676Z,10.75
2023-11-20T02:39:59.281Z,10.74
2023-11-20T02:42:26.029Z,10.76
2023-11-20T02:44:52.568Z,10.74
2023-11-20T02:47:19.285Z,10.74
2023-11-20T02:49:45.902Z,10.71
2023-11-20T02:52:12.412Z,10.68
2023-11-20T02:54:39.041Z,10.67
2023-11-20T02:57:05.979Z,10.68
2023-11-20T02:59:32.973Z,10.65
2023-11-20T03:01:59.615Z,10.69
2023-11-20T03:04:26.327Z,10.65
2023-11-20T03:06:52.906Z,10.65
2023-11-20T03:09:20.086Z,10.65
2023-11-20T03:11:49.669Z,10.64
2023-11-20T03:14:16.225Z,10.63
2023-11-20T03:16:43.110Z,10.63
2023-11-20T03:19:09.782Z,10.63
2023-11-20T03:21:37.478Z,10.62
2023-11-20T03:24:07.227Z,10.62
2023-11-20T03:26:33.701Z,10.60
2023-11-20T03:29:00.212Z,10.60
2023-11-20T03:31:34.687Z,10.58
2023-11-20T03:34:01.438Z,10.59
2023-11-20T03:36:31.044Z,10.56
2023-11-20T03:38:57.935Z,10.54
2023-11-20T03:41:24.445Z,10.55
2023-11-20T03:43:51.349Z,10.54
2023-11-20T03:46:17.922Z,10.54
2023-11-20T03:48:44.428Z,10.56
2023-11-20T03:51:10.932Z,10.55
2023-11-20T03:53:37.475Z,10.54
2023-11-20T03:56:05.582Z,10.54
2023-11-20T03:58:32.089Z,10.55
2023-11-20T04:00:58.613Z,10.57
2023-11-20T04:03:25.127Z,10.55
2023-11-20T04:05:53.491Z,10.57
2023-11-20T04:08:19.994Z,10.58
2023-11-20T04:10:46.500Z,10.55
2023-11-20T04:13:13.351Z,10.54
2023-11-20T04:15:40.150Z,10.52
2023-11-20T04:18:06.682Z,10.53
2023-11-20T04:20:33.304Z,10.53
2023-11-20T04:23:00.044Z,10.53
2023-11-20T04:25:26.636Z,10.53
2023-11-20T04:27:53.936Z,10.52
2023-11-20T04:30:21.807Z,10.50
2023-11-20T04:32:48.406Z,10.49
2023-11-20T04:35:15.041Z,10.49
2023-11-20T04:37:41.595Z,10.46
2023-11-20T04:40:08.889Z,10.46
2023-11-20T04:42:35.587Z,10.48
2023-11-20T04:45:02.089Z,10.47
2023-11-20T04:47:28.621Z,10.45
2023-11-20T04:49:55.121Z,10.44
2023-11-20T04:52:21.697Z,10.46
2023-11-20T04:54:48.299Z,10.44
2023-11-20T04:57:16.519Z,10.43
2023-11-20T04:59:43.109Z,10.42
2023-11-20T05:02:09.651Z,10.41
2023-11-20T05:04:36.137Z,10.41
2023-11-20T05:07:02.751Z,10.42
2023-11-20T05:09:29.256Z,10.42
2023-11-20T05:11:57.830Z,10.42
2023-11-20T05:14:24.706Z,10.40
2023-11-20T05:16:51.221Z,10.36
2023-11-20T05:19:17.701Z,10.36
2023-11-20T05:21:46.147Z,10.35
2023-11-20T05:24:12.738Z,10.35
2023-11-20T05:26:39.297Z,10.34
2023-11-20T05:29:06.665Z,10.34
2023-11-20T05:31:33.295Z,10.35
2023-11-20T05:33:59.873Z,10.36
2023-11-20T05:36:26.406Z,10.39
2023-11-20T05:38:52.917Z,10.39
2023-11-20T05:41:19.402Z,10.37
2023-11-20T05:43:46.182Z,10.36
2023-11-20T05:46:15.803Z,10.34
2023-11-20T05:48:42.463Z,10.36
2023-11-20T05:51:08.976Z,10.34
2023-11-20T05:53:35.481Z,10.34
2023-11-20T05:56:01.943Z,10.31
2023-11-20T05:58:28.452Z,10.31
2023-11-20T06:00:55.034Z,10.28
2023-11-20T06:03:21.677Z,10.25
2023-11-20T06:05:48.256Z,10.24
2023-11-20T06:08:14.791Z,10.23
2023-11-20T06:10:41.273Z,10.21
2023-11-20T06:13:08.728Z,10.20
2023-11-20T06:15:35.365Z,10.20
2023-11-20T06:18:01.889Z,10.21
2023-11-20T06:20:28.619Z,10.22
2023-11-20T06:22:55.112Z,10.21
2023-11-20T06:25:21.885Z,10.19
2023-11-20T06:27:48.644Z,10.20
2023-11-20T06:30:15.223Z,10.17
2023-11-20T06:32:41.822Z,10.17
2023-11-20T06:35:09.109Z,10.15
2023-11-20T06:37:35.729Z,10.13
2023-11-20T06:40:02.418Z,10.11
2023-11-20T06:42:29.001Z,10.11
2023-11-20T06:44:56.017Z,10.11
2023-11-20T06:47:23.657Z,10.11
2023-11-20T06:49:50.600Z,10.09
2023-11-20T06:52:17.993Z,10.08
2023-11-20T06:54:44.919Z,10.05
2023-11-20T06:57:12.877Z,10.04
2023-11-20T06:59:39.401Z,10.01
2023-11-20T07:02:06.703Z,9.98
2023-11-20T07:04:38.913Z,9.99
2023-11-20T07:07:05.671Z,10.00
2023-11-20T07:09:32.252Z,10.02
2023-11-20T07:11:58.821Z,9.98
2023-11-20T07:14:25.960Z,9.97
2023-11-20T07:16:52.617Z,9.96
2023-11-20T07:19:19.315Z,9.97
2023-11-20T07:21:45.890Z,9.98
2023-11-20T07:24:12.553Z,9.99
2023-11-20T07:26:40.652Z,10.01
2023-11-20T07:29:07.174Z,10.01
2023-11-20T07:31:33.736Z,10.01
2023-11-20T07:34:01.318Z,9.98
2023-11-20T07:36:28.396Z,9.98
2023-11-20T07:38:54.962Z,9.98
2023-11-20T07:41:21.461Z,9.97
2023-11-20T07:43:47.938Z,9.99
2023-11-20T07:46:14.592Z,9.96
2023-11-20T07:48:41.282Z,9.96
2023-11-20T07:51:07.880Z,9.93
2023-11-20T07:53:34.462Z,9.92
2023-11-20T07:56:00.970Z,9.91
2023-11-20T07:58:27.547Z,9.92
2023-11-20T08:00:54.752Z,9.96
2023-11-20T08:03:21.351Z,9.94
2023-11-20T08:05:49.852Z,9.94
2023-11-20T08:08:17.073Z,9.94
2023-11-20T08:10:43.605Z,9.94
2023-11-20T08:13:10.193Z,9.97
2023-11-20T08:15:36.770Z,9.99
2023-11-20T08:18:03.373Z,10.05
2023-11-20T08:20:30.730Z,10.07
2023-11-20T08:22:58.042Z,10.07
2023-11-20T08:25:25.526Z,10.10
2023-11-20T08:27:52.537Z,10.13
2023-11-20T08:30:19.116Z,10.13
2023-11-20T08:32:45.689Z,10.17
2023-11-20T08:35:12.575Z,10.19
2023-11-20T08:37:40.575Z,10.23
2023-11-20T08:40:10.373Z,10.28
2023-11-20T08:42:37.186Z,10.41
2023-11-20T08:45:06.095Z,10.51
2023-11-20T08:47:33.108Z,10.59
2023-11-20T08:49:59.689Z,10.63
2023-11-20T08:52:26.241Z,10.68
2023-11-20T08:54:53.213Z,10.68
2023-11-20T08:57:19.748Z,10.67
2023-11-20T08:59:46.417Z,10.58
2023-11-20T09:02:12.958Z,10.50
2023-11-20T09:04:40.461Z,10.49
2023-11-20T09:07:07.182Z,10.52
2023-11-20T09:09:36.456Z,10.55
2023-11-20T09:12:04.822Z,10.54
2023-11-20T09:14:31.413Z,10.47
2023-11-20T09:16:58.822Z,10.34
2023-11-20T09:19:25.875Z,10.26
2023-11-20T09:21:52.506Z,10.25
2023-11-20T09:24:19.632Z,10.29
2023-11-20T09:26:46.177Z,10.30
2023-11-20T09:29:12.712Z,10.25
2023-11-20T09:31:39.338Z,10.29
2023-11-20T09:34:07.546Z,10.31
2023-11-20T09:36:34.104Z,10.29
2023-11-20T09:39:00.588Z,10.28
2023-11-20T09:41:27.830Z,10.27
2023-11-20T09:43:55.201Z,10.27
2023-11-20T09:46:22.228Z,10.25
2023-11-20T09:51:21.013Z,10.23
2023-11-20T09:53:50.508Z,10.18
2023-11-20T09:56:17.549Z,10.19
2023-11-20T09:58:44.537Z,10.28
2023-11-20T10:01:14.402Z,10.39
2023-11-20T10:03:43.015Z,10.39
2023-11-20T10:06:12.496Z,10.40
2023-11-20T10:08:41.882Z,10.48
2023-11-20T10:11:08.919Z,10.53
2023-11-20T10:13:35.712Z,10.55
2023-11-20T10:16:02.992Z,10.58
2023-11-20T10:18:29.558Z,10.62
2023-11-20T10:20:59.693Z,10.71
2023-11-20T10:23:26.997Z,10.74
2023-11-20T10:25:54.179Z,10.79
2023-11-20T10:28:22.495Z,10.84
2023-11-20T10:30:49.575Z,10.83
2023-11-20T10:33:20.859Z,10.82
2023-11-20T10:35:48.867Z,10.82
2023-11-20T10:38:16.146Z,10.80
2023-11-20T10:40:49.767Z,10.82
2023-11-20T10:43:17.282Z,10.88
2023-11-20T10:45:43.965Z,10.93
2023-11-20T10:48:10.933Z,10.93
2023-11-20T10:50:38.485Z,10.93
2023-11-20T10:53:07.470Z,11.01
2023-11-20T10:55:51.165Z,11.03
2023-11-20T10:58:17.841Z,11.06
2023-11-20T11:00:45.941Z,11.07
2023-11-20T11:03:17.808Z,11.07
2023-11-20T11:05:47.742Z,11.06
2023-11-20T11:08:15.592Z,11.06
2023-11-20T11:10:43.517Z,11.11
2023-11-20T11:13:11.562Z,11.12
2023-11-20T11:15:39.261Z,11.19
2023-11-20T11:18:07.898Z,11.32
2023-11-20T11:20:44.709Z,11.37
2023-11-20T11:23:13.136Z,11.46
2023-11-20T11:25:47.120Z,11.56
2023-11-20T11:28:15.428Z,11.60
2023-11-20T11:30:45.571Z,11.58
2023-11-20T11:33:43.563Z,11.59
2023-11-20T11:36:21.740Z,11.60
2023-11-20T11:39:06.246Z,11.57
2023-11-20T11:41:45.979Z,11.49
2023-11-20T11:44:19.605Z,11.51
2023-11-20T11:46:50.529Z,11.50
2023-11-20T11:49:24.189Z,11.47
2023-11-20T11:51:56.308Z,11.41
2023-11-20T11:54:25.359Z,11.39
2023-11-20T11:57:08.801Z,11.35
2023-11-20T11:59:39.872Z,11.33
2023-11-20T12:02:07.624Z,11.34
2023-11-20T12:04:52.589Z,11.39
2023-11-20T12:07:37.210Z,11.36
2023-11-20T12:10:05.481Z,11.27
2023-11-20T12:13:04.331Z,11.23
2023-11-20T12:15:30.832Z,11.17
2023-11-20T12:18:07.679Z,11.07
2023-11-20T12:20:35.319Z,10.95
2023-11-20T12:23:09.153Z,10.84
2023-11-20T12:25:39.459Z,10.74
2023-11-20T12:28:08.913Z,10.69
2023-11-20T12:30:36.046Z,10.66
2023-11-20T12:33:03.915Z,10.60
2023-11-20T12:35:32.964Z,10.52
2023-11-20T12:38:00.683Z,10.47
2023-11-20T12:40:27.822Z,10.43
2023-11-20T12:42:54.343Z,10.45
2023-11-20T12:45:20.890Z,10.49
2023-11-20T12:47:47.991Z,10.58
2023-11-20T12:50:18.570Z,10.70
2023-11-20T12:52:45.400Z,10.82
2023-11-20T12:55:12.044Z,10.98
2023-11-20T12:57:39.114Z,11.08
2023-11-20T13:00:15.761Z,11.08
2023-11-20T13:02:55.260Z,11.07
2023-11-20T13:05:26.628Z,11.08
2023-11-20T13:07:57.603Z,11.07
2023-11-20T13:10:25.697Z,11.03
2023-11-20T13:12:54.044Z,11.01
2023-11-20T13:15:26.836Z,11.00
2023-11-20T13:17:54.336Z,10.99
2023-11-20T13:20:41.414Z,11.01
2023-11-20T13:23:24.845Z,11.08
2023-11-20T13:26:05.239Z,11.17
2023-11-20T13:28:36.534Z,11.22
2023-11-20T13:31:07.031Z,11.27
2023-11-20T13:33:35.077Z,11.34
2023-11-20T13:36:03.303Z,11.40
2023-11-20T13:38:30.860Z,11.42
2023-11-20T13:40:58.580Z,11.41
2023-11-20T13:43:26.277Z,11.44
2023-11-20T13:45:53.177Z,11.44
2023-11-20T13:48:21.088Z,11.41
2023-11-20T13:50:48.529Z,11.44
2023-11-20T13:53:16.385Z,11.46
2023-11-20T13:55:45.933Z,11.50
2023-11-20T13:58:20.774Z,11.53
2023-11-20T14:00:47.369Z,11.59
2023-11-20T14:03:17.157Z,11.60
2023-11-20T14:05:45.072Z,11.60
2023-11-20T14:08:13.152Z,11.62
2023-11-20T14:10:43.277Z,11.53
2023-11-20T14:13:09.869Z,11.48
2023-11-20T14:15:36.392Z,11.43
2023-11-20T14:18:02.956Z,11.33
2023-11-20T14:20:29.421Z,11.29
2023-11-20T14:22:57.759Z,11.23
2023-11-20T14:25:25.216Z,11.18
2023-11-20T14:27:52.659Z,11.15
2023-11-20T14:30:20.401Z,11.13
2023-11-20T14:32:48.046Z,11.08
2023-11-20T14:35:17.148Z,11.02
2023-11-20T14:37:47.411Z,11.00
2023-11-20T14:40:17.152Z,10.96
2023-11-20T14:42:46.788Z,10.93
2023-11-20T14:45:16.277Z,10.88
2023-11-20T14:47:48.159Z,10.81
2023-11-20T14:50:16.454Z,10.76
2023-11-20T14:52:45.279Z,10.71
2023-11-20T14:55:12.208Z,10.68
2023-11-20T14:57:42.602Z,10.67
2023-11-20T15:00:15.605Z,10.68
2023-11-20T15:02:47.237Z,10.66
2023-11-20T15:05:14.013Z,10.65
2023-11-20T15:07:41.591Z,10.65
2023-11-20T15:10:10.536Z,10.62
2023-11-20T15:12:38.471Z,10.65
2023-11-20T15:15:07.189Z,10.65
2023-11-20T15:17:34.068Z,10.65
2023-11-20T15:20:00.687Z,10.63
2023-11-20T15:22:27.378Z,10.63
2023-11-20T15:24:54.004Z,10.63
2023-11-20T15:27:21.863Z,10.62
2023-11-20T15:29:48.636Z,10.57
2023-11-20T15:32:15.252Z,10.53
2023-11-20T15:34:41.908Z,10.48
2023-11-20T15:37:09.633Z,10.44
2023-11-20T15:39:36.221Z,10.38
2023-11-20T15:42:04.711Z,10.33
2023-11-20T15:44:31.180Z,10.31
2023-11-20T15:46:58.348Z,10.32
2023-11-20T15:49:24.991Z,10.29
2023-11-20T15:51:51.497Z,10.29
2023-11-20T15:54:18.336Z,10.28
2023-11-20T15:56:49.508Z,10.25
2023-11-20T15:59:17.486Z,10.22
2023-11-20T16:01:52.193Z,10.20
2023-11-20T16:04:22.453Z,10.19
2023-11-20T16:06:53.777Z,10.19
2023-11-20T16:09:21.729Z,10.20
2023-11-20T16:11:48.741Z,10.18
2023-11-20T16:14:15.703Z,10.17
2023-11-20T16:16:46.441Z,10.16
2023-11-20T16:19:13.876Z,10.13
2023-11-20T16:21:40.947Z,10.11
2023-11-20T16:24:08.476Z,10.07
2023-11-20T16:26:35.130Z,10.01
2023-11-20T16:29:01.669Z,10.00
2023-11-20T16:31:28.230Z,10.00
2023-11-20T16:33:54.835Z,9.98
2023-11-20T16:36:21.449Z,9.97
2023-11-20T16:38:47.947Z,9.93
2023-11-20T16:41:14.457Z,9.93
2023-11-20T16:43:40.938Z,9.93
2023-11-20T16:46:08.008Z,9.91
2023-11-20T16:48:34.522Z,9.89
2023-11-20T16:51:01.074Z,9.86
2023-11-20T16:53:27.687Z,9.82
2023-11-20T16:55:54.262Z,9.79
2023-11-20T16:58:20.834Z,9.77
2023-11-20T17:00:49.231Z,9.74
2023-11-20T17:03:15.919Z,9.71
2023-11-20T17:05:48.119Z,9.71
2023-11-20T17:08:14.639Z,9.67
2023-11-20T17:10:43.559Z,9.62
2023-11-20T17:13:11.067Z,9.58
2023-11-20T17:15:37.636Z,9.56
2023-11-20T17:18:04.260Z,9.52
2023-11-20T17:20:31.508Z,9.47
2023-11-20T17:22:58.031Z,9.49
2023-11-20T17:25:24.683Z,9.45
2023-11-20T17:27:51.204Z,9.43
2023-11-20T17:30:17.913Z,9.38
2023-11-20T17:32:44.688Z,9.36
2023-11-20T17:35:11.376Z,9.34
2023-11-20T17:37:38.607Z,9.32
2023-11-20T17:40:05.947Z,9.28
2023-11-20T17:42:32.483Z,9.30
2023-11-20T17:44:58.963Z,9.33
2023-11-20T17:47:25.472Z,9.34
2023-11-20T17:49:51.979Z,9.34
2023-11-20T17:52:18.592Z,9.35
2023-11-20T17:54:45.198Z,9.35
2023-11-20T17:57:11.905Z,9.37
2023-11-20T17:59:38.443Z,9.37
2023-11-20T18:02:05.704Z,9.41
2023-11-20T18:04:32.598Z,9.39
2023-11-20T18:06:59.209Z,9.39
2023-11-20T18:09:25.736Z,9.41
2023-11-20T18:11:52.316Z,9.40
2023-11-20T18:14:18.806Z,9.40
2023-11-20T18:16:45.454Z,9.37
2023-11-20T18:19:12.033Z,9.38
2023-11-20T18:21:46.036Z,9.37
2023-11-20T18:24:18.467Z,9.37
2023-11-20T18:26:46.097Z,9.36
2023-11-20T18:29:14.166Z,9.35
2023-11-20T18:31:40.777Z,9.34
2023-11-20T18:34:10.481Z,9.33
2023-11-20T18:36:37.052Z,9.34
2023-11-20T18:39:03.600Z,9.35
2023-11-20T18:41:31.281Z,9.34
2023-11-20T18:43:58.015Z,9.38
2023-11-20T18:46:24.635Z,9.36
2023-11-20T18:48:51.163Z,9.37
2023-11-20T18:51:17.653Z,9.35
2023-11-20T18:53:47.068Z,9.35
2023-11-20T18:56:13.617Z,9.33
2023-11-20T18:58:41.268Z,9.31
2023-11-20T19:01:08.144Z,9.28
2023-11-20T19:03:35.078Z,9.26
2023-11-20T19:06:01.619Z,9.20
2023-11-20T19:08:28.557Z,9.17
2023-11-20T19:10:56.259Z,9.12
2023-11-20T19:13:23.928Z,9.07
2023-11-20T19:15:51.801Z,9.05
2023-11-20T19:18:18.394Z,9.02
2023-11-20T19:20:44.939Z,8.95
2023-11-20T19:23:11.482Z,8.90
2023-11-20T19:25:39.147Z,8.88
2023-11-20T19:28:05.804Z,8.87
2023-11-20T19:30:35.705Z,8.85
2023-11-20T19:33:06.545Z,8.84
2023-11-20T19:35:33.218Z,8.84
2023-11-20T19:38:00.024Z,8.85
2023-11-20T19:40:26.668Z,8.84
2023-11-20T19:42:53.281Z,8.83
2023-11-20T19:45:22.196Z,8.86
2023-11-20T19:47:48.870Z,8.86
2023-11-20T19:50:15.485Z,8.84
2023-11-20T19:52:43.030Z,8.85
2023-11-20T19:55:09.752Z,8.89
2023-11-20T19:57:36.305Z,8.88
2023-11-20T20:00:06.794Z,8.89
2023-11-20T20:02:33.401Z,8.90
2023-11-20T20:04:59.974Z,8.90
2023-11-20T20:07:27.055Z,8.89
2023-11-20T20:09:53.620Z,8.90
2023-11-20T20:12:20.823Z,8.91
2023-11-20T20:14:51.241Z,8.90
2023-11-20T20:17:18.094Z,8.90
2023-11-20T20:19:49.180Z,8.90
2023-11-20T20:22:17.837Z,8.90
2023-11-20T20:24:45.752Z,8.90
2023-11-20T20:27:13.094Z,8.89
2023-11-20T20:29:39.983Z,8.88
2023-11-20T20:32:09.366Z,8.86
2023-11-20T20:34:36.235Z,8.88
2023-11-20T20:37:03.628Z,8.87
2023-11-20T20:39:30.288Z,8.87
2023-11-20T20:41:56.897Z,8.87
2023-11-20T20:44:24.580Z,8.86
2023-11-20T20:46:54.360Z,8.85
2023-11-20T20:49:23.076Z,8.85
2023-11-20T20:51:49.882Z,8.86
2023-11-20T20:54:16.918Z,8.87
2023-11-20T20:56:45.566Z,8.86
2023-11-20T20:59:14.323Z,8.83
2023-11-20T21:01:41.041Z,8.82
2023-11-20T21:04:07.775Z,8.82
2023-11-20T21:06:36.820Z,8.81
2023-11-20T21:09:05.982Z,8.80
2023-11-20T21:11:34.554Z,8.77
2023-11-20T21:14:01.160Z,8.74
2023-11-20T21:16:27.802Z,8.70
2023-11-20T21:18:54.399Z,8.63
2023-11-20T21:21:20.996Z,8.59
2023-11-20T21:23:47.526Z,8.53
2023-11-20T21:26:14.865Z,8.50
2023-11-20T21:28:41.983Z,8.46
2023-11-20T21:31:09.188Z,8.41
2023-11-20T21:33:36.044Z,8.34
2023-11-20T21:36:03.461Z,8.30
2023-11-20T21:38:30.693Z,8.28
2023-11-20T21:40:57.619Z,8.20
2023-11-20T21:43:24.533Z,8.15
2023-11-20T21:45:52.442Z,8.08
2023-11-20T21:48:19.391Z,8.03
2023-11-20T21:50:45.906Z,8.01
2023-11-20T21:53:13.243Z,7.96
2023-11-20T21:55:39.855Z,7.92
2023-11-20T21:58:06.518Z,7.87
2023-11-20T22:00:33.049Z,7.86
2023-11-20T22:02:59.634Z,7.83
2023-11-20T22:05:26.209Z,7.79
2023-11-20T22:07:52.954Z,7.77
2023-11-20T22:10:22.063Z,7.76
2023-11-20T22:12:49.039Z,7.75
2023-11-20T22:15:15.962Z,7.68
2023-11-20T22:17:42.652Z,7.60
2023-11-20T22:20:12.690Z,7.52
2023-11-20T22:22:39.853Z,7.46
2023-11-20T22:25:06.655Z,7.42
2023-11-20T22:27:33.527Z,7.42
2023-11-20T22:30:00.270Z,7.44
2023-11-20T22:32:27.169Z,7.42
2023-11-20T22:35:09.638Z,7.35
2023-11-20T22:37:40.166Z,7.29
2023-11-20T22:40:09.693Z,7.22
2023-11-20T22:42:36.637Z,7.12
2023-11-20T22:45:03.357Z,7.08
2023-11-20T22:47:30.825Z,7.03
2023-11-20T22:49:57.489Z,6.96
2023-11-20T22:52:24.093Z,6.97
2023-11-20T22:54:50.610Z,6.94
2023-11-20T22:57:17.178Z,6.90
2023-11-20T22:59:43.744Z,6.89
2023-11-20T23:02:10.409Z,6.85
2023-11-20T23:04:37.310Z,6.80
2023-11-20T23:07:06.352Z,6.77
2023-11-20T23:09:33.755Z,6.73
2023-11-20T23:12:00.532Z,6.70
2023-11-20T23:14:27.065Z,6.68
2023-11-20T23:16:55.193Z,6.71
2023-11-20T23:19:22.643Z,6.65
2023-11-20T23:21:49.304Z,6.66
2023-11-20T23:24:15.996Z,6.73
2023-11-20T23:26:42.558Z,6.67
2023-11-20T23:29:13.481Z,6.71
2023-11-20T23:31:40.929Z,6.66
2023-11-20T23:34:07.608Z,6.58
2023-11-20T23:36:34.229Z,6.54
2023-11-20T23:39:00.697Z,6.53
2023-11-20T23:41:27.421Z,6.53
2023-11-20T23:43:55.119Z,6.51
2023-11-20T23:46:22.258Z,6.47
2023-11-20T23:48:51.488Z,6.44
2023-11-20T23:51:18.268Z,6.40
2023-11-20T23:53:44.912Z,6.35
2023-11-20T23:56:11.389Z,6.33
2023-11-20T23:58:38.037Z,6.32
